Impacts METAR Board
IDs:

KBYY - Bay City Muni, TX, US

Updated at: 1300 UTC 14 Dec 2019
Potential Impact None Slight Moderate High
Time 14/01Z 14/02Z 14/03Z 14/04Z 14/05Z 14/06Z 14/07Z 14/08Z 14/09Z 14/10Z 14/11Z 14/12Z 14/13Z
Temp64 61 59 55 55 52 51 50 49 46 47 46 48
Dewpt59 58 57 55 55 52 51 50 49 46 47 46 48
Altim29.83 29.84 29.85 29.85 29.87 29.87 29.87 29.86 29.85 29.86 29.85 29.85 29.87
VIS10 10 10 1 0.5 0.5 0.25 3 5 7 7 7 7
CIG-- -- -- 7 2 2 2 -- -- -- -- -- --
CoverCLRCLRCLROVXOVCBKNOVCSCTCLRCLRCLRCLRCLR
FltCatVFRVFRVFRIFRLIFRLIFRLIFRMVFRMVFRVFRVFRVFRVFR
WX------BRFGFGFGBRBR--------
WDir0000000000000
WSpd0 0 0 0 0 0 0 0 0 0 0 0 0
WGst-- -- -- -- -- -- -- -- -- -- -- -- --
Raw hourly METARs
KBYY 140055Z AUTO 00000KT 10SM CLR 17/14 A2983 RMK AO2 T01780148
KBYY 140155Z AUTO 00000KT 10SM CLR 16/14 A2984 RMK AO2 T01610146
KBYY 140255Z AUTO 00000KT 10SM CLR 15/14 A2985 RMK AO2 T01500141
KBYY 140355Z AUTO 00000KT 1SM BR VV007 13/13 A2985 RMK AO2 VIS 1/2V2 1/2 T01430143
KBYY 140455Z AUTO 00000KT 1/2SM FG OVC002 13/13 A2987 RMK AO2 T01300130
KBYY 140555Z AUTO 00000KT 1/2SM FG BKN002 11/11 A2987 RMK AO2 T01240124
KBYY 140655Z AUTO 00000KT 1/4SM FG OVC002 10/10 A2987 RMK AO2 T01070107
KBYY 140755Z AUTO 00000KT 3SM BR SCT002 10/10 A2986 RMK AO2 T00980098
KBYY 140855Z AUTO 00000KT 5SM BR CLR 09/09 A2985 RMK AO2 T00960096
KBYY 140955Z AUTO 00000KT 7SM CLR 08/08 A2986 RMK AO2 T00960096
KBYY 141055Z AUTO 00000KT 7SM CLR 08/08 A2985 RMK AO2 T00850085
KBYY 141155Z AUTO 00000KT 7SM CLR 08/08 A2985 RMK AO2 T00910091
KBYY 141255Z AUTO 00000KT 7SM CLR 09/09 A2987 RMK AO2 T00900090



Page loaded:  13:45 UTC  |   05:45 AM Pacific  |   06:45 AM Mountain  |   07:45 AM Central  |   08:45 AM Eastern

 

ADVISORIES

FORECASTS

FORECASTS

OBSERVATIONS

USER TOOLS

ABOUT US